sensor_id;sensor_type;location;lat;lon;timestamp;P1;durP1;ratioP1;P2;durP2;ratioP2
41323;SDS011;27073;51.128;4.220;2022-11-15T00:01:52;34.40;;;25.73;;
41323;SDS011;27073;51.128;4.220;2022-11-15T00:04:37;32.10;;;24.35;;
41323;SDS011;27073;51.128;4.220;2022-11-15T00:07:21;29.52;;;22.17;;
41323;SDS011;27073;51.128;4.220;2022-11-15T00:10:05;31.35;;;21.17;;
41323;SDS011;27073;51.128;4.220;2022-11-15T00:12:50;28.00;;;21.25;;
41323;SDS011;27073;51.128;4.220;2022-11-15T00:15:35;27.75;;;22.05;;
41323;SDS011;27073;51.128;4.220;2022-11-15T00:18:24;27.10;;;20.77;;
41323;SDS011;27073;51.128;4.220;2022-11-15T00:21:12;24.48;;;21.38;;
41323;SDS011;27073;51.128;4.220;2022-11-15T00:23:58;23.23;;;19.17;;
41323;SDS011;27073;51.128;4.220;2022-11-15T00:26:42;24.67;;;20.17;;
41323;SDS011;27073;51.128;4.220;2022-11-15T00:29:26;21.95;;;18.73;;
41323;SDS011;27073;51.128;4.220;2022-11-15T00:32:10;22.55;;;19.08;;
41323;SDS011;27073;51.128;4.220;2022-11-15T00:34:54;25.48;;;20.35;;
41323;SDS011;27073;51.128;4.220;2022-11-15T00:37:39;24.92;;;19.92;;
41323;SDS011;27073;51.128;4.220;2022-11-15T00:40:23;22.25;;;19.35;;
41323;SDS011;27073;51.128;4.220;2022-11-15T00:43:07;24.30;;;18.70;;
41323;SDS011;27073;51.128;4.220;2022-11-15T00:45:51;22.77;;;18.92;;
41323;SDS011;27073;51.128;4.220;2022-11-15T00:48:35;29.20;;;20.35;;
41323;SDS011;27073;51.128;4.220;2022-11-15T00:51:19;22.58;;;19.45;;
41323;SDS011;27073;51.128;4.220;2022-11-15T00:54:04;25.23;;;19.73;;
41323;SDS011;27073;51.128;4.220;2022-11-15T00:56:48;27.13;;;21.30;;
41323;SDS011;27073;51.128;4.220;2022-11-15T00:59:32;27.55;;;20.17;;
41323;SDS011;27073;51.128;4.220;2022-11-15T01:02:16;23.33;;;19.77;;
41323;SDS011;27073;51.128;4.220;2022-11-15T01:05:00;28.02;;;20.65;;
41323;SDS011;27073;51.128;4.220;2022-11-15T01:07:44;22.83;;;19.05;;
41323;SDS011;27073;51.128;4.220;2022-11-15T01:10:28;23.42;;;19.13;;
41323;SDS011;27073;51.128;4.220;2022-11-15T01:13:12;23.40;;;20.10;;
41323;SDS011;27073;51.128;4.220;2022-11-15T01:15:56;23.17;;;19.35;;
41323;SDS011;27073;51.128;4.220;2022-11-15T01:18:40;23.48;;;18.75;;
41323;SDS011;27073;51.128;4.220;2022-11-15T01:21:24;20.85;;;18.35;;
41323;SDS011;27073;51.128;4.220;2022-11-15T01:24:11;23.95;;;19.73;;
41323;SDS011;27073;51.128;4.220;2022-11-15T01:26:56;19.50;;;17.38;;
41323;SDS011;27073;51.128;4.220;2022-11-15T01:29:40;20.55;;;17.23;;
41323;SDS011;27073;51.128;4.220;2022-11-15T01:32:24;21.60;;;17.30;;
41323;SDS011;27073;51.128;4.220;2022-11-15T01:35:08;25.23;;;16.75;;
41323;SDS011;27073;51.128;4.220;2022-11-15T01:37:53;20.80;;;15.13;;
41323;SDS011;27073;51.128;4.220;2022-11-15T01:40:37;21.17;;;17.75;;
41323;SDS011;27073;51.128;4.220;2022-11-15T01:43:26;22.27;;;16.65;;
41323;SDS011;27073;51.128;4.220;2022-11-15T01:49:18;19.50;;;15.77;;
41323;SDS011;27073;51.128;4.220;2022-11-15T01:52:07;20.52;;;16.20;;
41323;SDS011;27073;51.128;4.220;2022-11-15T01:54:57;19.00;;;16.50;;
41323;SDS011;27073;51.128;4.220;2022-11-15T01:57:43;19.25;;;14.60;;
41323;SDS011;27073;51.128;4.220;2022-11-15T02:00:30;21.38;;;14.77;;
41323;SDS011;27073;51.128;4.220;2022-11-15T02:03:15;18.27;;;15.23;;
41323;SDS011;27073;51.128;4.220;2022-11-15T02:06:00;19.42;;;14.77;;
41323;SDS011;27073;51.128;4.220;2022-11-15T02:08:45;25.08;;;15.35;;
41323;SDS011;27073;51.128;4.220;2022-11-15T02:11:29;19.67;;;15.48;;
41323;SDS011;27073;51.128;4.220;2022-11-15T02:14:14;17.73;;;14.52;;
41323;SDS011;27073;51.128;4.220;2022-11-15T02:29:41;19.15;;;13.60;;
41323;SDS011;27073;51.128;4.220;2022-11-15T02:32:38;17.88;;;13.77;;
41323;SDS011;27073;51.128;4.220;2022-11-15T02:35:48;18.35;;;14.38;;
41323;SDS011;27073;51.128;4.220;2022-11-15T02:44:39;19.77;;;14.57;;
41323;SDS011;27073;51.128;4.220;2022-11-15T02:47:27;21.65;;;15.60;;
41323;SDS011;27073;51.128;4.220;2022-11-15T02:50:18;19.42;;;14.55;;
41323;SDS011;27073;51.128;4.220;2022-11-15T02:53:04;19.80;;;14.75;;
41323;SDS011;27073;51.128;4.220;2022-11-15T02:55:49;17.13;;;14.02;;
41323;SDS011;27073;51.128;4.220;2022-11-15T02:58:52;18.55;;;14.10;;
41323;SDS011;27073;51.128;4.220;2022-11-15T03:04:57;18.33;;;13.20;;
41323;SDS011;27073;51.128;4.220;2022-11-15T03:14:08;18.42;;;12.88;;
41323;SDS011;27073;51.128;4.220;2022-11-15T03:17:16;16.27;;;12.27;;
41323;SDS011;27073;51.128;4.220;2022-11-15T03:20:11;19.52;;;12.93;;
41323;SDS011;27073;51.128;4.220;2022-11-15T03:23:00;20.73;;;13.57;;
41323;SDS011;27073;51.128;4.220;2022-11-15T03:25:50;17.75;;;12.63;;
41323;SDS011;27073;51.128;4.220;2022-11-15T03:28:39;16.00;;;12.70;;
41323;SDS011;27073;51.128;4.220;2022-11-15T03:31:26;14.27;;;11.65;;
41323;SDS011;27073;51.128;4.220;2022-11-15T03:40:30;15.85;;;11.32;;
41323;SDS011;27073;51.128;4.220;2022-11-15T03:43:25;18.08;;;11.30;;
41323;SDS011;27073;51.128;4.220;2022-11-15T03:46:22;18.58;;;11.65;;
41323;SDS011;27073;51.128;4.220;2022-11-15T03:49:14;14.50;;;11.03;;
41323;SDS011;27073;51.128;4.220;2022-11-15T03:52:03;13.30;;;9.95;;
41323;SDS011;27073;51.128;4.220;2022-11-15T03:54:49;13.95;;;10.07;;
41323;SDS011;27073;51.128;4.220;2022-11-15T04:00:23;12.05;;;9.88;;
41323;SDS011;27073;51.128;4.220;2022-11-15T04:03:07;16.13;;;10.18;;
41323;SDS011;27073;51.128;4.220;2022-11-15T04:05:51;15.18;;;10.52;;
41323;SDS011;27073;51.128;4.220;2022-11-15T04:08:35;15.85;;;9.43;;
41323;SDS011;27073;51.128;4.220;2022-11-15T04:11:19;16.02;;;9.70;;
41323;SDS011;27073;51.128;4.220;2022-11-15T04:14:03;17.90;;;9.15;;
41323;SDS011;27073;51.128;4.220;2022-11-15T04:16:47;14.18;;;8.77;;
41323;SDS011;27073;51.128;4.220;2022-11-15T04:19:32;14.85;;;8.50;;
41323;SDS011;27073;51.128;4.220;2022-11-15T04:22:34;14.13;;;9.35;;
41323;SDS011;27073;51.128;4.220;2022-11-15T04:25:38;15.48;;;9.82;;
41323;SDS011;27073;51.128;4.220;2022-11-15T04:28:22;10.63;;;9.00;;
41323;SDS011;27073;51.128;4.220;2022-11-15T04:31:07;12.68;;;7.90;;
41323;SDS011;27073;51.128;4.220;2022-11-15T04:33:51;12.35;;;8.05;;
41323;SDS011;27073;51.128;4.220;2022-11-15T04:36:36;13.38;;;8.10;;
41323;SDS011;27073;51.128;4.220;2022-11-15T04:39:39;15.88;;;7.18;;
41323;SDS011;27073;51.128;4.220;2022-11-15T04:42:24;11.75;;;8.07;;
41323;SDS011;27073;51.128;4.220;2022-11-15T04:45:08;11.63;;;7.28;;
41323;SDS011;27073;51.128;4.220;2022-11-15T04:47:53;13.68;;;7.40;;
41323;SDS011;27073;51.128;4.220;2022-11-15T04:50:38;10.15;;;6.57;;
41323;SDS011;27073;51.128;4.220;2022-11-15T04:53:22;13.65;;;7.85;;
41323;SDS011;27073;51.128;4.220;2022-11-15T04:56:06;10.27;;;6.78;;
41323;SDS011;27073;51.128;4.220;2022-11-15T04:58:50;10.00;;;6.63;;
41323;SDS011;27073;51.128;4.220;2022-11-15T05:01:34;11.27;;;6.47;;
41323;SDS011;27073;51.128;4.220;2022-11-15T05:04:18;11.43;;;6.47;;
41323;SDS011;27073;51.128;4.220;2022-11-15T05:07:02;9.50;;;7.00;;
41323;SDS011;27073;51.128;4.220;2022-11-15T05:09:49;11.18;;;6.53;;
41323;SDS011;27073;51.128;4.220;2022-11-15T05:12:33;10.23;;;5.70;;
41323;SDS011;27073;51.128;4.220;2022-11-15T05:15:18;10.70;;;5.60;;
41323;SDS011;27073;51.128;4.220;2022-11-15T05:18:02;10.13;;;5.82;;
41323;SDS011;27073;51.128;4.220;2022-11-15T05:20:46;12.85;;;5.43;;
41323;SDS011;27073;51.128;4.220;2022-11-15T05:23:30;12.38;;;6.47;;
41323;SDS011;27073;51.128;4.220;2022-11-15T05:26:15;11.23;;;5.15;;
41323;SDS011;27073;51.128;4.220;2022-11-15T05:29:00;11.18;;;6.05;;
41323;SDS011;27073;51.128;4.220;2022-11-15T05:31:46;13.23;;;5.65;;
41323;SDS011;27073;51.128;4.220;2022-11-15T05:34:30;14.27;;;6.45;;
41323;SDS011;27073;51.128;4.220;2022-11-15T05:37:15;9.07;;;6.05;;
41323;SDS011;27073;51.128;4.220;2022-11-15T05:40:00;16.00;;;6.95;;
41323;SDS011;27073;51.128;4.220;2022-11-15T05:42:44;11.00;;;6.05;;
41323;SDS011;27073;51.128;4.220;2022-11-15T05:45:29;11.98;;;6.93;;
41323;SDS011;27073;51.128;4.220;2022-11-15T05:48:15;9.70;;;6.07;;
41323;SDS011;27073;51.128;4.220;2022-11-15T05:50:59;13.82;;;7.07;;
41323;SDS011;27073;51.128;4.220;2022-11-15T05:53:45;10.80;;;5.60;;
41323;SDS011;27073;51.128;4.220;2022-11-15T05:56:30;9.60;;;6.03;;
41323;SDS011;27073;51.128;4.220;2022-11-15T05:59:15;10.02;;;4.93;;
41323;SDS011;27073;51.128;4.220;2022-11-15T06:02:00;10.90;;;5.55;;
41323;SDS011;27073;51.128;4.220;2022-11-15T06:04:44;10.35;;;5.40;;
41323;SDS011;27073;51.128;4.220;2022-11-15T06:07:28;8.82;;;4.95;;
41323;SDS011;27073;51.128;4.220;2022-11-15T06:10:13;14.35;;;4.53;;
41323;SDS011;27073;51.128;4.220;2022-11-15T06:15:43;10.52;;;4.50;;
41323;SDS011;27073;51.128;4.220;2022-11-15T06:18:27;9.05;;;3.72;;
41323;SDS011;27073;51.128;4.220;2022-11-15T06:21:11;10.32;;;4.10;;
41323;SDS011;27073;51.128;4.220;2022-11-15T06:23:55;9.77;;;3.67;;
41323;SDS011;27073;51.128;4.220;2022-11-15T06:26:39;7.82;;;3.78;;
41323;SDS011;27073;51.128;4.220;2022-11-15T06:29:23;7.57;;;4.00;;
41323;SDS011;27073;51.128;4.220;2022-11-15T06:32:07;10.82;;;3.58;;
41323;SDS011;27073;51.128;4.220;2022-11-15T06:34:51;12.70;;;3.92;;
41323;SDS011;27073;51.128;4.220;2022-11-15T06:37:35;12.18;;;4.80;;
41323;SDS011;27073;51.128;4.220;2022-11-15T06:40:19;10.15;;;3.70;;
41323;SDS011;27073;51.128;4.220;2022-11-15T06:43:04;8.80;;;3.40;;
41323;SDS011;27073;51.128;4.220;2022-11-15T06:45:50;11.00;;;3.85;;
41323;SDS011;27073;51.128;4.220;2022-11-15T06:48:34;12.07;;;3.85;;
41323;SDS011;27073;51.128;4.220;2022-11-15T06:51:19;7.78;;;3.15;;
41323;SDS011;27073;51.128;4.220;2022-11-15T06:54:04;5.38;;;3.20;;
41323;SDS011;27073;51.128;4.220;2022-11-15T06:56:48;10.52;;;4.32;;
41323;SDS011;27073;51.128;4.220;2022-11-15T06:59:33;11.35;;;3.53;;
41323;SDS011;27073;51.128;4.220;2022-11-15T07:02:17;11.25;;;3.92;;
41323;SDS011;27073;51.128;4.220;2022-11-15T07:05:01;11.82;;;3.50;;
41323;SDS011;27073;51.128;4.220;2022-11-15T07:07:50;8.77;;;4.43;;
41323;SDS011;27073;51.128;4.220;2022-11-15T07:10:36;12.52;;;4.35;;
41323;SDS011;27073;51.128;4.220;2022-11-15T07:13:23;18.77;;;4.30;;
41323;SDS011;27073;51.128;4.220;2022-11-15T07:16:09;15.00;;;5.22;;
41323;SDS011;27073;51.128;4.220;2022-11-15T07:18:53;8.45;;;3.70;;
41323;SDS011;27073;51.128;4.220;2022-11-15T07:21:37;9.48;;;4.57;;
41323;SDS011;27073;51.128;4.220;2022-11-15T07:24:21;10.68;;;4.45;;
41323;SDS011;27073;51.128;4.220;2022-11-15T07:27:05;11.60;;;5.15;;
41323;SDS011;27073;51.128;4.220;2022-11-15T07:29:49;18.00;;;6.05;;
41323;SDS011;27073;51.128;4.220;2022-11-15T07:32:34;11.18;;;6.13;;
41323;SDS011;27073;51.128;4.220;2022-11-15T07:35:18;15.25;;;7.90;;
41323;SDS011;27073;51.128;4.220;2022-11-15T07:38:02;14.10;;;6.18;;
41323;SDS011;27073;51.128;4.220;2022-11-15T07:40:47;12.48;;;6.03;;
41323;SDS011;27073;51.128;4.220;2022-11-15T07:43:43;12.13;;;5.95;;
41323;SDS011;27073;51.128;4.220;2022-11-15T07:46:27;14.45;;;7.07;;
41323;SDS011;27073;51.128;4.220;2022-11-15T07:49:11;20.55;;;6.25;;
41323;SDS011;27073;51.128;4.220;2022-11-15T07:51:55;11.77;;;6.90;;
41323;SDS011;27073;51.128;4.220;2022-11-15T07:54:39;12.57;;;5.20;;
41323;SDS011;27073;51.128;4.220;2022-11-15T07:57:24;9.60;;;5.93;;
41323;SDS011;27073;51.128;4.220;2022-11-15T08:00:09;13.05;;;5.85;;
41323;SDS011;27073;51.128;4.220;2022-11-15T08:03:00;8.35;;;5.60;;
41323;SDS011;27073;51.128;4.220;2022-11-15T08:05:50;17.40;;;5.22;;
41323;SDS011;27073;51.128;4.220;2022-11-15T08:08:35;8.85;;;4.40;;
41323;SDS011;27073;51.128;4.220;2022-11-15T08:11:19;14.50;;;5.47;;
41323;SDS011;27073;51.128;4.220;2022-11-15T08:14:03;15.57;;;4.97;;
41323;SDS011;27073;51.128;4.220;2022-11-15T08:16:48;8.60;;;4.15;;
41323;SDS011;27073;51.128;4.220;2022-11-15T08:19:32;7.03;;;4.18;;
41323;SDS011;27073;51.128;4.220;2022-11-15T08:22:16;10.02;;;4.60;;
41323;SDS011;27073;51.128;4.220;2022-11-15T08:25:01;6.68;;;3.72;;
41323;SDS011;27073;51.128;4.220;2022-11-15T08:27:46;8.73;;;4.15;;
41323;SDS011;27073;51.128;4.220;2022-11-15T08:30:31;8.02;;;4.57;;
41323;SDS011;27073;51.128;4.220;2022-11-15T08:33:19;21.40;;;5.78;;
41323;SDS011;27073;51.128;4.220;2022-11-15T08:36:04;9.50;;;3.25;;
41323;SDS011;27073;51.128;4.220;2022-11-15T08:38:48;6.28;;;3.17;;
41323;SDS011;27073;51.128;4.220;2022-11-15T08:41:35;5.90;;;2.78;;
41323;SDS011;27073;51.128;4.220;2022-11-15T08:44:21;8.95;;;3.55;;
41323;SDS011;27073;51.128;4.220;2022-11-15T08:47:05;9.77;;;3.53;;
41323;SDS011;27073;51.128;4.220;2022-11-15T08:49:50;6.00;;;2.70;;
41323;SDS011;27073;51.128;4.220;2022-11-15T08:52:34;5.72;;;2.78;;
41323;SDS011;27073;51.128;4.220;2022-11-15T08:55:19;5.13;;;1.90;;
41323;SDS011;27073;51.128;4.220;2022-11-15T08:58:03;5.97;;;1.90;;
41323;SDS011;27073;51.128;4.220;2022-11-15T09:00:48;7.13;;;2.42;;
41323;SDS011;27073;51.128;4.220;2022-11-15T09:03:32;5.85;;;2.15;;
41323;SDS011;27073;51.128;4.220;2022-11-15T09:06:16;3.95;;;1.70;;
41323;SDS011;27073;51.128;4.220;2022-11-15T09:09:01;11.43;;;1.85;;
41323;SDS011;27073;51.128;4.220;2022-11-15T09:11:46;5.75;;;1.73;;
41323;SDS011;27073;51.128;4.220;2022-11-15T09:14:31;6.82;;;2.03;;
41323;SDS011;27073;51.128;4.220;2022-11-15T09:17:15;9.80;;;2.17;;
41323;SDS011;27073;51.128;4.220;2022-11-15T09:19:59;6.53;;;1.63;;
41323;SDS011;27073;51.128;4.220;2022-11-15T09:22:44;7.57;;;2.50;;
41323;SDS011;27073;51.128;4.220;2022-11-15T09:25:28;8.45;;;2.55;;
41323;SDS011;27073;51.128;4.220;2022-11-15T09:28:13;7.60;;;2.00;;
41323;SDS011;27073;51.128;4.220;2022-11-15T09:30:57;5.70;;;1.70;;
41323;SDS011;27073;51.128;4.220;2022-11-15T09:33:44;8.40;;;1.90;;
41323;SDS011;27073;51.128;4.220;2022-11-15T09:36:29;8.57;;;1.92;;
41323;SDS011;27073;51.128;4.220;2022-11-15T09:39:13;9.57;;;2.15;;
41323;SDS011;27073;51.128;4.220;2022-11-15T09:51:35;6.25;;;1.40;;
41323;SDS011;27073;51.128;4.220;2022-11-15T09:54:16;5.65;;;1.77;;
41323;SDS011;27073;51.128;4.220;2022-11-15T09:56:49;7.03;;;1.48;;
41323;SDS011;27073;51.128;4.220;2022-11-15T10:04:26;6.80;;;1.50;;
41323;SDS011;27073;51.128;4.220;2022-11-15T10:06:58;6.85;;;1.92;;
41323;SDS011;27073;51.128;4.220;2022-11-15T10:09:41;8.90;;;1.80;;
41323;SDS011;27073;51.128;4.220;2022-11-15T10:12:12;6.10;;;1.15;;
41323;SDS011;27073;51.128;4.220;2022-11-15T10:14:39;6.32;;;1.40;;
41323;SDS011;27073;51.128;4.220;2022-11-15T10:20:05;6.90;;;1.30;;
41323;SDS011;27073;51.128;4.220;2022-11-15T10:27:34;8.13;;;1.90;;
41323;SDS011;27073;51.128;4.220;2022-11-15T10:30:00;7.18;;;1.90;;
41323;SDS011;27073;51.128;4.220;2022-11-15T10:32:26;6.50;;;1.65;;
41323;SDS011;27073;51.128;4.220;2022-11-15T10:34:52;7.43;;;1.38;;
41323;SDS011;27073;51.128;4.220;2022-11-15T10:37:31;8.13;;;1.40;;
41323;SDS011;27073;51.128;4.220;2022-11-15T10:40:04;7.50;;;2.60;;
41323;SDS011;27073;51.128;4.220;2022-11-15T10:42:47;7.57;;;1.13;;
41323;SDS011;27073;51.128;4.220;2022-11-15T10:45:32;6.88;;;1.50;;
41323;SDS011;27073;51.128;4.220;2022-11-15T10:53:41;7.80;;;1.50;;
41323;SDS011;27073;51.128;4.220;2022-11-15T10:56:04;7.68;;;1.30;;
41323;SDS011;27073;51.128;4.220;2022-11-15T10:58:39;9.85;;;2.25;;
41323;SDS011;27073;51.128;4.220;2022-11-15T11:01:12;4.75;;;1.25;;
41323;SDS011;27073;51.128;4.220;2022-11-15T11:03:43;5.75;;;1.40;;
41323;SDS011;27073;51.128;4.220;2022-11-15T11:06:14;8.18;;;1.95;;
41323;SDS011;27073;51.128;4.220;2022-11-15T11:08:57;9.27;;;1.67;;
41323;SDS011;27073;51.128;4.220;2022-11-15T11:11:47;6.03;;;1.50;;
41323;SDS011;27073;51.128;4.220;2022-11-15T11:16:50;5.57;;;1.50;;
41323;SDS011;27073;51.128;4.220;2022-11-15T11:21:51;7.38;;;1.30;;
41323;SDS011;27073;51.128;4.220;2022-11-15T11:30:18;8.35;;;1.65;;
41323;SDS011;27073;51.128;4.220;2022-11-15T11:35:37;16.35;;;1.60;;
41323;SDS011;27073;51.128;4.220;2022-11-15T11:41:15;9.40;;;1.13;;
41323;SDS011;27073;51.128;4.220;2022-11-15T11:49:05;5.70;;;1.92;;
41323;SDS011;27073;51.128;4.220;2022-11-15T11:51:56;7.70;;;1.58;;
41323;SDS011;27073;51.128;4.220;2022-11-15T11:54:40;8.32;;;1.40;;
41323;SDS011;27073;51.128;4.220;2022-11-15T11:57:38;5.60;;;1.35;;
41323;SDS011;27073;51.128;4.220;2022-11-15T12:00:03;8.45;;;1.75;;
41323;SDS011;27073;51.128;4.220;2022-11-15T12:02:41;6.38;;;1.05;;
41323;SDS011;27073;51.128;4.220;2022-11-15T12:05:35;5.28;;;1.48;;
41323;SDS011;27073;51.128;4.220;2022-11-15T12:11:19;7.03;;;1.48;;
41323;SDS011;27073;51.128;4.220;2022-11-15T12:13:56;8.25;;;1.48;;
41323;SDS011;27073;51.128;4.220;2022-11-15T12:16:29;8.48;;;1.88;;
41323;SDS011;27073;51.128;4.220;2022-11-15T12:18:59;6.68;;;1.92;;
41323;SDS011;27073;51.128;4.220;2022-11-15T12:24:12;4.60;;;1.00;;
41323;SDS011;27073;51.128;4.220;2022-11-15T12:26:52;8.90;;;1.80;;
41323;SDS011;27073;51.128;4.220;2022-11-15T12:31:51;8.52;;;1.70;;
41323;SDS011;27073;51.128;4.220;2022-11-15T12:36:48;7.18;;;1.35;;
41323;SDS011;27073;51.128;4.220;2022-11-15T12:39:15;5.93;;;2.13;;
41323;SDS011;27073;51.128;4.220;2022-11-15T12:41:43;7.13;;;1.25;;
41323;SDS011;27073;51.128;4.220;2022-11-15T13:12:52;5.22;;;1.10;;
41323;SDS011;27073;51.128;4.220;2022-11-15T13:15:38;5.07;;;1.67;;
41323;SDS011;27073;51.128;4.220;2022-11-15T13:20:57;5.82;;;1.60;;
41323;SDS011;27073;51.128;4.220;2022-11-15T13:23:24;8.93;;;1.80;;
41323;SDS011;27073;51.128;4.220;2022-11-15T13:28:38;9.15;;;1.40;;
41323;SDS011;27073;51.128;4.220;2022-11-15T13:34:03;7.47;;;2.13;;
41323;SDS011;27073;51.128;4.220;2022-11-15T13:36:41;6.22;;;1.55;;
41323;SDS011;27073;51.128;4.220;2022-11-15T13:39:14;6.35;;;1.50;;
41323;SDS011;27073;51.128;4.220;2022-11-15T13:41:54;4.20;;;1.23;;
41323;SDS011;27073;51.128;4.220;2022-11-15T13:44:24;8.02;;;2.55;;
41323;SDS011;27073;51.128;4.220;2022-11-15T13:47:00;10.55;;;2.10;;
41323;SDS011;27073;51.128;4.220;2022-11-15T13:49:31;6.93;;;1.38;;
41323;SDS011;27073;51.128;4.220;2022-11-15T13:51:58;7.20;;;1.52;;
41323;SDS011;27073;51.128;4.220;2022-11-15T13:57:12;3.85;;;1.30;;
41323;SDS011;27073;51.128;4.220;2022-11-15T13:59:54;5.30;;;1.27;;
41323;SDS011;27073;51.128;4.220;2022-11-15T14:02:32;5.68;;;1.42;;
41323;SDS011;27073;51.128;4.220;2022-11-15T14:08:20;4.85;;;1.25;;
41323;SDS011;27073;51.128;4.220;2022-11-15T14:10:47;8.00;;;1.77;;
41323;SDS011;27073;51.128;4.220;2022-11-15T14:13:29;5.13;;;1.63;;
41323;SDS011;27073;51.128;4.220;2022-11-15T14:18:50;6.32;;;1.45;;
41323;SDS011;27073;51.128;4.220;2022-11-15T14:21:18;10.80;;;2.05;;
41323;SDS011;27073;51.128;4.220;2022-11-15T14:23:45;15.90;;;2.85;;
41323;SDS011;27073;51.128;4.220;2022-11-15T14:26:27;11.18;;;2.42;;
41323;SDS011;27073;51.128;4.220;2022-11-15T14:29:21;7.38;;;1.23;;
41323;SDS011;27073;51.128;4.220;2022-11-15T14:32:20;4.63;;;1.20;;
41323;SDS011;27073;51.128;4.220;2022-11-15T14:34:57;5.95;;;1.33;;
41323;SDS011;27073;51.128;4.220;2022-11-15T14:37:28;6.13;;;1.60;;
41323;SDS011;27073;51.128;4.220;2022-11-15T14:40:00;4.20;;;1.45;;
41323;SDS011;27073;51.128;4.220;2022-11-15T14:42:27;6.78;;;1.77;;
41323;SDS011;27073;51.128;4.220;2022-11-15T14:44:52;3.88;;;1.00;;
41323;SDS011;27073;51.128;4.220;2022-11-15T14:47:18;3.45;;;1.10;;
41323;SDS011;27073;51.128;4.220;2022-11-15T14:49:44;3.38;;;1.10;;
41323;SDS011;27073;51.128;4.220;2022-11-15T14:52:43;3.15;;;0.90;;
41323;SDS011;27073;51.128;4.220;2022-11-15T14:55:03;6.47;;;1.40;;
41323;SDS011;27073;51.128;4.220;2022-11-15T14:57:36;3.63;;;1.27;;
41323;SDS011;27073;51.128;4.220;2022-11-15T15:00:03;4.28;;;1.70;;
41323;SDS011;27073;51.128;4.220;2022-11-15T15:02:47;5.80;;;1.52;;
41323;SDS011;27073;51.128;4.220;2022-11-15T15:05:16;4.88;;;1.30;;
41323;SDS011;27073;51.128;4.220;2022-11-15T15:07:51;3.72;;;1.27;;
41323;SDS011;27073;51.128;4.220;2022-11-15T15:10:18;4.38;;;1.63;;
41323;SDS011;27073;51.128;4.220;2022-11-15T15:12:44;3.45;;;1.30;;
41323;SDS011;27073;51.128;4.220;2022-11-15T15:15:16;5.35;;;1.70;;
41323;SDS011;27073;51.128;4.220;2022-11-15T15:17:45;5.15;;;1.30;;
41323;SDS011;27073;51.128;4.220;2022-11-15T15:20:11;4.78;;;1.42;;
41323;SDS011;27073;51.128;4.220;2022-11-15T15:22:37;4.43;;;1.60;;
41323;SDS011;27073;51.128;4.220;2022-11-15T15:25:03;5.53;;;1.83;;
41323;SDS011;27073;51.128;4.220;2022-11-15T15:27:54;6.07;;;1.58;;
41323;SDS011;27073;51.128;4.220;2022-11-15T15:30:21;2.90;;;1.27;;
41323;SDS011;27073;51.128;4.220;2022-11-15T15:32:47;4.05;;;1.38;;
41323;SDS011;27073;51.128;4.220;2022-11-15T15:35:14;2.42;;;1.33;;
41323;SDS011;27073;51.128;4.220;2022-11-15T15:37:41;5.25;;;2.05;;
41323;SDS011;27073;51.128;4.220;2022-11-15T15:40:16;5.00;;;1.92;;
41323;SDS011;27073;51.128;4.220;2022-11-15T15:42:43;4.07;;;1.73;;
41323;SDS011;27073;51.128;4.220;2022-11-15T15:45:09;4.75;;;1.92;;
41323;SDS011;27073;51.128;4.220;2022-11-15T15:47:35;5.47;;;1.95;;
41323;SDS011;27073;51.128;4.220;2022-11-15T15:50:01;5.45;;;3.25;;
41323;SDS011;27073;51.128;4.220;2022-11-15T15:52:27;4.68;;;2.08;;
41323;SDS011;27073;51.128;4.220;2022-11-15T15:54:53;4.80;;;2.25;;
41323;SDS011;27073;51.128;4.220;2022-11-15T15:57:19;4.82;;;2.13;;
41323;SDS011;27073;51.128;4.220;2022-11-15T15:59:44;3.28;;;2.05;;
41323;SDS011;27073;51.128;4.220;2022-11-15T16:02:13;5.70;;;2.30;;
41323;SDS011;27073;51.128;4.220;2022-11-15T16:04:39;3.65;;;2.22;;
41323;SDS011;27073;51.128;4.220;2022-11-15T16:07:05;6.68;;;2.08;;
41323;SDS011;27073;51.128;4.220;2022-11-15T16:09:31;5.40;;;2.13;;
41323;SDS011;27073;51.128;4.220;2022-11-15T16:12:15;4.68;;;2.20;;
41323;SDS011;27073;51.128;4.220;2022-11-15T16:14:42;10.93;;;2.42;;
41323;SDS011;27073;51.128;4.220;2022-11-15T16:17:15;6.03;;;2.45;;
41323;SDS011;27073;51.128;4.220;2022-11-15T16:19:44;5.80;;;2.55;;
41323;SDS011;27073;51.128;4.220;2022-11-15T16:22:09;6.15;;;3.13;;
41323;SDS011;27073;51.128;4.220;2022-11-15T16:24:35;4.35;;;2.60;;
41323;SDS011;27073;51.128;4.220;2022-11-15T16:27:01;5.68;;;2.70;;
41323;SDS011;27073;51.128;4.220;2022-11-15T16:29:27;4.53;;;2.58;;
41323;SDS011;27073;51.128;4.220;2022-11-15T16:31:53;5.55;;;3.03;;
41323;SDS011;27073;51.128;4.220;2022-11-15T16:34:19;4.20;;;2.53;;
41323;SDS011;27073;51.128;4.220;2022-11-15T16:36:44;7.93;;;3.38;;
41323;SDS011;27073;51.128;4.220;2022-11-15T16:39:11;5.90;;;2.90;;
41323;SDS011;27073;51.128;4.220;2022-11-15T16:41:43;5.57;;;2.72;;
41323;SDS011;27073;51.128;4.220;2022-11-15T16:44:12;5.90;;;3.97;;
41323;SDS011;27073;51.128;4.220;2022-11-15T16:46:38;5.45;;;3.88;;
41323;SDS011;27073;51.128;4.220;2022-11-15T16:49:13;8.88;;;5.82;;
41323;SDS011;27073;51.128;4.220;2022-11-15T16:51:44;7.97;;;4.32;;
41323;SDS011;27073;51.128;4.220;2022-11-15T16:54:11;5.93;;;3.80;;
41323;SDS011;27073;51.128;4.220;2022-11-15T16:56:37;8.98;;;5.60;;
41323;SDS011;27073;51.128;4.220;2022-11-15T16:59:04;8.23;;;4.22;;
41323;SDS011;27073;51.128;4.220;2022-11-15T17:01:31;5.35;;;3.35;;
41323;SDS011;27073;51.128;4.220;2022-11-15T17:04:01;5.28;;;3.38;;
41323;SDS011;27073;51.128;4.220;2022-11-15T17:06:37;6.30;;;3.28;;
41323;SDS011;27073;51.128;4.220;2022-11-15T17:09:13;6.70;;;4.05;;
41323;SDS011;27073;51.128;4.220;2022-11-15T17:11:44;5.82;;;3.60;;
41323;SDS011;27073;51.128;4.220;2022-11-15T17:14:10;3.92;;;3.10;;
41323;SDS011;27073;51.128;4.220;2022-11-15T17:16:37;5.20;;;3.28;;
41323;SDS011;27073;51.128;4.220;2022-11-15T17:19:10;7.80;;;4.10;;
41323;SDS011;27073;51.128;4.220;2022-11-15T17:21:37;5.55;;;3.88;;
41323;SDS011;27073;51.128;4.220;2022-11-15T17:24:03;7.22;;;4.13;;
41323;SDS011;27073;51.128;4.220;2022-11-15T17:26:29;6.28;;;4.18;;
41323;SDS011;27073;51.128;4.220;2022-11-15T17:28:55;5.68;;;3.90;;
41323;SDS011;27073;51.128;4.220;2022-11-15T17:33:51;5.15;;;3.85;;
41323;SDS011;27073;51.128;4.220;2022-11-15T17:36:17;5.40;;;3.08;;
41323;SDS011;27073;51.128;4.220;2022-11-15T17:38:42;6.07;;;4.00;;
41323;SDS011;27073;51.128;4.220;2022-11-15T17:41:10;4.05;;;3.22;;
41323;SDS011;27073;51.128;4.220;2022-11-15T17:43:37;6.22;;;3.60;;
41323;SDS011;27073;51.128;4.220;2022-11-15T17:46:05;5.60;;;3.33;;
41323;SDS011;27073;51.128;4.220;2022-11-15T17:48:32;5.20;;;3.50;;
41323;SDS011;27073;51.128;4.220;2022-11-15T17:51:02;4.93;;;3.65;;
41323;SDS011;27073;51.128;4.220;2022-11-15T17:53:33;3.85;;;3.25;;
41323;SDS011;27073;51.128;4.220;2022-11-15T17:56:02;4.35;;;3.55;;
41323;SDS011;27073;51.128;4.220;2022-11-15T17:58:29;5.47;;;3.80;;
41323;SDS011;27073;51.128;4.220;2022-11-15T18:01:03;9.32;;;4.32;;
41323;SDS011;27073;51.128;4.220;2022-11-15T18:03:34;5.68;;;3.72;;
41323;SDS011;27073;51.128;4.220;2022-11-15T18:06:01;5.03;;;4.05;;
41323;SDS011;27073;51.128;4.220;2022-11-15T18:08:28;5.45;;;3.63;;
41323;SDS011;27073;51.128;4.220;2022-11-15T18:11:01;4.75;;;3.95;;
41323;SDS011;27073;51.128;4.220;2022-11-15T18:13:33;4.80;;;3.60;;
41323;SDS011;27073;51.128;4.220;2022-11-15T18:16:00;6.35;;;4.18;;
41323;SDS011;27073;51.128;4.220;2022-11-15T18:18:29;5.22;;;3.70;;
41323;SDS011;27073;51.128;4.220;2022-11-15T18:21:09;6.80;;;4.68;;
41323;SDS011;27073;51.128;4.220;2022-11-15T18:23:37;5.75;;;3.92;;